createdAt,value
2018-10-01T00:00:51.455Z,21.30
2018-10-01T00:01:51.437Z,21.27
2018-10-01T00:02:51.407Z,21.34
2018-10-01T00:03:51.416Z,21.28
2018-10-01T00:04:51.415Z,21.31
2018-10-01T00:05:51.419Z,21.27
2018-10-01T00:06:51.388Z,21.37
2018-10-01T00:07:51.394Z,21.28
2018-10-01T00:08:51.430Z,21.31
2018-10-01T00:09:51.482Z,21.33
2018-10-01T00:10:51.371Z,21.40
2018-10-01T00:11:51.357Z,21.34
2018-10-01T00:12:51.335Z,21.28
2018-10-01T00:13:51.349Z,21.43
2018-10-01T00:14:51.338Z,21.28
2018-10-01T00:15:51.463Z,21.30
2018-10-01T00:16:51.323Z,21.34
2018-10-01T00:17:51.298Z,21.28
2018-10-01T00:18:51.299Z,21.33
2018-10-01T00:19:51.299Z,21.40
2018-10-01T00:20:51.278Z,21.33
2018-10-01T00:21:51.385Z,21.24
2018-10-01T00:22:51.283Z,21.40
2018-10-01T00:23:51.263Z,21.30
2018-10-01T00:24:51.272Z,21.33
2018-10-01T00:25:51.271Z,21.31
2018-10-01T00:26:51.241Z,21.36
2018-10-01T00:27:51.355Z,21.37
2018-10-01T00:28:51.223Z,21.33
2018-10-01T00:29:51.238Z,21.30
2018-10-01T00:30:51.250Z,21.28
2018-10-01T00:31:51.200Z,21.19
2018-10-01T00:32:51.189Z,21.19
2018-10-01T00:33:51.213Z,21.19
2018-10-01T00:34:51.180Z,21.21
2018-10-01T00:35:51.196Z,21.21
2018-10-01T00:36:51.170Z,21.18
2018-10-01T00:37:51.174Z,21.15
2018-10-01T00:38:51.149Z,21.21
2018-10-01T00:39:51.173Z,21.22
2018-10-01T00:40:51.146Z,21.11
2018-10-01T00:41:51.134Z,21.18
2018-10-01T00:42:51.134Z,21.09
2018-10-01T00:43:51.158Z,21.08
2018-10-01T00:44:51.109Z,21.18
2018-10-01T00:45:51.087Z,21.08
2018-10-01T00:46:51.099Z,21.09
2018-10-01T00:47:51.099Z,21.00
2018-10-01T00:48:51.079Z,20.96
2018-10-01T00:49:51.182Z,21.06
2018-10-01T00:50:51.086Z,20.98
2018-10-01T00:51:51.096Z,20.90
2018-10-01T00:52:51.055Z,20.93
2018-10-01T00:53:51.036Z,20.97
2018-10-01T00:54:51.038Z,20.90
2018-10-01T00:55:51.025Z,20.98
2018-10-01T00:56:51.031Z,20.96
2018-10-01T00:57:51.011Z,20.98
2018-10-01T00:58:50.988Z,20.94
2018-10-01T00:59:50.997Z,20.93
2018-10-01T01:00:50.990Z,20.96
2018-10-01T01:01:50.961Z,20.88
2018-10-01T01:02:50.974Z,20.91
2018-10-01T01:03:50.955Z,20.81
2018-10-01T01:04:50.952Z,20.83
2018-10-01T01:05:50.950Z,20.94
2018-10-01T01:06:50.989Z,20.90
2018-10-01T01:07:50.920Z,20.85
2018-10-01T01:08:50.907Z,20.93
2018-10-01T01:09:50.931Z,20.96
2018-10-01T01:10:51.052Z,20.98
2018-10-01T01:11:50.909Z,20.98
2018-10-01T01:12:50.902Z,20.96
2018-10-01T01:13:50.861Z,20.90
2018-10-01T01:14:50.891Z,20.85
2018-10-01T01:15:50.892Z,20.85
2018-10-01T01:16:50.858Z,20.83
2018-10-01T01:17:50.895Z,20.88
2018-10-01T01:18:50.835Z,20.85
2018-10-01T01:19:50.821Z,20.83
2018-10-01T01:20:50.841Z,20.90
2018-10-01T01:21:50.873Z,20.90
2018-10-01T01:22:50.812Z,20.85
2018-10-01T01:23:50.861Z,20.90
2018-10-01T01:24:50.807Z,20.90
2018-10-01T01:25:50.783Z,20.87
2018-10-01T01:26:50.827Z,20.88
2018-10-01T01:27:50.784Z,20.91
2018-10-01T01:28:50.760Z,20.90
2018-10-01T01:29:50.782Z,20.88
2018-10-01T01:30:50.745Z,20.90
2018-10-01T01:31:50.793Z,20.85
2018-10-01T01:32:50.837Z,20.88
2018-10-01T01:33:50.736Z,20.91
2018-10-01T01:34:50.726Z,20.93
2018-10-01T01:35:50.699Z,20.91
2018-10-01T01:36:50.737Z,20.87
2018-10-01T01:37:50.713Z,20.85
2018-10-01T01:38:50.783Z,20.87
2018-10-01T01:39:50.672Z,20.88
2018-10-01T01:40:50.677Z,20.88
2018-10-01T01:41:50.668Z,20.90
2018-10-01T01:42:50.665Z,20.87
2018-10-01T01:43:50.625Z,20.88
2018-10-01T01:44:50.618Z,20.88
2018-10-01T01:45:50.631Z,20.88
2018-10-01T01:46:50.615Z,20.83
2018-10-01T01:47:50.621Z,20.79
2018-10-01T01:48:50.649Z,20.82
2018-10-01T01:49:50.594Z,20.78
2018-10-01T01:50:50.617Z,20.79
2018-10-01T01:51:50.586Z,20.79
2018-10-01T01:52:50.560Z,20.78
2018-10-01T01:53:50.560Z,20.75
2018-10-01T01:54:50.675Z,20.82
2018-10-01T01:55:50.539Z,20.75
2018-10-01T01:56:50.545Z,20.68
2018-10-01T01:57:50.587Z,20.78
2018-10-01T01:58:50.536Z,20.69
2018-10-01T01:59:50.572Z,20.69
2018-10-01T02:00:50.518Z,20.72
2018-10-01T02:01:50.503Z,20.78
2018-10-01T02:02:50.511Z,20.68
2018-10-01T02:03:50.553Z,20.75
2018-10-01T02:04:50.485Z,20.81
2018-10-01T02:05:50.505Z,20.64
2018-10-01T02:06:50.455Z,20.78
2018-10-01T02:07:50.462Z,20.71
2018-10-01T02:08:50.454Z,20.71
2018-10-01T02:09:50.453Z,20.66
2018-10-01T02:10:50.447Z,20.66
2018-10-01T02:11:50.434Z,20.71
2018-10-01T02:12:50.465Z,20.71
2018-10-01T02:13:50.425Z,20.72
2018-10-01T02:14:50.393Z,20.69
2018-10-01T02:15:50.382Z,20.78
2018-10-01T02:16:50.403Z,20.72
2018-10-01T02:17:50.401Z,20.76
2018-10-01T02:18:50.380Z,20.73
2018-10-01T02:19:50.359Z,20.73
2018-10-01T02:20:50.336Z,20.66
2018-10-01T02:21:50.365Z,20.68
2018-10-01T02:22:50.394Z,20.66
2018-10-01T02:23:50.332Z,20.51
2018-10-01T02:24:50.316Z,20.54
2018-10-01T02:25:50.322Z,20.56
2018-10-01T02:26:50.314Z,20.57
2018-10-01T02:27:50.298Z,20.68
2018-10-01T02:28:50.280Z,20.66
2018-10-01T02:29:50.290Z,20.68
2018-10-01T02:30:50.280Z,20.76
2018-10-01T02:31:50.347Z,20.73
2018-10-01T02:32:50.251Z,20.69
2018-10-01T02:33:50.260Z,20.64
2018-10-01T02:34:50.224Z,20.78
2018-10-01T02:35:50.247Z,20.72
2018-10-01T02:36:50.223Z,20.66
2018-10-01T02:37:50.220Z,20.60
2018-10-01T02:38:50.211Z,20.69
2018-10-01T02:39:50.220Z,20.66
2018-10-01T02:40:50.200Z,20.69
2018-10-01T02:41:50.192Z,20.72
2018-10-01T02:42:50.183Z,20.69
2018-10-01T02:43:50.177Z,20.64
2018-10-01T02:44:50.154Z,20.64
2018-10-01T02:45:50.168Z,20.57
2018-10-01T02:46:50.167Z,20.64
2018-10-01T02:47:50.237Z,20.69
2018-10-01T02:48:50.132Z,20.56
2018-10-01T02:49:50.128Z,20.68
2018-10-01T02:50:50.124Z,20.69
2018-10-01T02:51:50.146Z,20.71
2018-10-01T02:52:50.103Z,20.71
2018-10-01T02:53:50.107Z,20.66
2018-10-01T02:54:50.130Z,20.71
2018-10-01T02:55:50.085Z,20.73
2018-10-01T02:56:50.114Z,20.64
2018-10-01T02:57:50.037Z,20.71
2018-10-01T02:58:50.080Z,20.71
2018-10-01T02:59:50.083Z,20.64
2018-10-01T03:00:50.049Z,20.63
2018-10-01T03:01:50.057Z,20.63
2018-10-01T03:02:50.005Z,20.54
2018-10-01T03:03:50.023Z,20.48
2018-10-01T03:04:50.013Z,20.56
2018-10-01T03:05:49.992Z,20.56
2018-10-01T03:06:49.971Z,20.69
2018-10-01T03:07:50.058Z,20.73
2018-10-01T03:08:50.018Z,20.66
2018-10-01T03:09:50.045Z,20.69
2018-10-01T03:10:49.935Z,20.66
2018-10-01T03:11:49.951Z,20.66
2018-10-01T03:12:49.952Z,20.58
2018-10-01T03:13:50.032Z,20.56
2018-10-01T03:14:49.934Z,20.54
2018-10-01T03:15:49.928Z,20.58
2018-10-01T03:16:49.916Z,20.58
2018-10-01T03:17:49.948Z,20.51
2018-10-01T03:18:49.890Z,20.60
2018-10-01T03:19:49.975Z,20.56
2018-10-01T03:20:49.856Z,20.51
2018-10-01T03:21:49.874Z,20.58
2018-10-01T03:22:49.849Z,20.57
2018-10-01T03:23:49.841Z,20.56
2018-10-01T03:24:49.862Z,20.48
2018-10-01T03:25:49.807Z,20.53
2018-10-01T03:26:49.837Z,20.56
2018-10-01T03:27:49.826Z,20.48
2018-10-01T03:28:49.811Z,20.50
2018-10-01T03:29:49.848Z,20.46
2018-10-01T03:30:49.922Z,20.34
2018-10-01T03:31:49.779Z,20.48
2018-10-01T03:32:49.782Z,20.42
2018-10-01T03:33:49.771Z,20.44
2018-10-01T03:34:49.789Z,20.41
2018-10-01T03:35:49.772Z,20.44
2018-10-01T03:36:49.752Z,20.35
2018-10-01T03:37:49.724Z,20.31
2018-10-01T03:38:49.739Z,20.35
2018-10-01T03:39:49.723Z,20.44
2018-10-01T03:40:49.713Z,20.33
2018-10-01T03:41:49.717Z,20.33
2018-10-01T03:42:49.710Z,20.41
2018-10-01T03:43:49.697Z,20.34
2018-10-01T03:44:49.683Z,20.33
2018-10-01T03:45:49.677Z,20.34
2018-10-01T03:46:49.960Z,20.35
2018-10-01T03:47:49.653Z,20.37
2018-10-01T03:48:49.651Z,20.40
2018-10-01T03:49:49.643Z,20.33
2018-10-01T03:50:49.609Z,20.31
2018-10-01T03:51:49.617Z,20.38
2018-10-01T03:52:49.640Z,20.37
2018-10-01T03:53:49.596Z,20.38
2018-10-01T03:54:49.587Z,20.31
2018-10-01T03:55:49.576Z,20.34
2018-10-01T03:56:49.571Z,20.38
2018-10-01T03:57:49.594Z,20.33
2018-10-01T03:58:49.611Z,20.34
2018-10-01T03:59:49.558Z,20.35
2018-10-01T04:00:49.553Z,20.31
2018-10-01T04:01:49.517Z,20.31
2018-10-01T04:02:49.563Z,20.40
2018-10-01T04:03:49.515Z,20.35
2018-10-01T04:04:49.499Z,20.38
2018-10-01T04:05:49.514Z,20.41
2018-10-01T04:06:49.483Z,20.37
2018-10-01T04:07:49.506Z,20.37
2018-10-01T04:08:49.507Z,20.38
2018-10-01T04:09:49.491Z,20.42
2018-10-01T04:10:49.468Z,20.35
2018-10-01T04:11:49.460Z,20.35
2018-10-01T04:12:49.449Z,20.37
2018-10-01T04:13:49.448Z,20.41
2018-10-01T04:14:49.434Z,20.41
2018-10-01T04:15:49.419Z,20.40
2018-10-01T04:16:49.410Z,20.48
2018-10-01T04:17:49.395Z,20.42
2018-10-01T04:18:49.405Z,20.41
2018-10-01T04:19:49.390Z,20.38
2018-10-01T04:20:49.392Z,20.46
2018-10-01T04:21:49.360Z,20.41
2018-10-01T04:22:49.407Z,20.37
2018-10-01T04:23:49.347Z,20.33
2018-10-01T04:24:49.347Z,20.42
2018-10-01T04:25:49.354Z,20.41
2018-10-01T04:26:49.334Z,20.50
2018-10-01T04:27:49.292Z,20.44
2018-10-01T04:28:49.321Z,20.31
2018-10-01T04:29:49.284Z,20.35
2018-10-01T04:30:49.284Z,20.42
2018-10-01T04:31:49.291Z,20.42
2018-10-01T04:32:49.288Z,20.50
2018-10-01T04:33:49.383Z,20.53
2018-10-01T04:34:49.293Z,20.50
2018-10-01T04:35:49.235Z,20.61
2018-10-01T04:36:49.238Z,20.50
2018-10-01T04:37:49.221Z,20.51
2018-10-01T04:38:49.212Z,20.60
2018-10-01T04:39:49.199Z,20.53
2018-10-01T04:40:49.307Z,20.60
2018-10-01T04:41:49.208Z,20.60
2018-10-01T04:42:49.197Z,20.60
2018-10-01T04:43:49.282Z,20.57
2018-10-01T04:44:49.169Z,20.54
2018-10-01T04:45:49.156Z,20.60
2018-10-01T04:46:49.251Z,20.60
2018-10-01T04:47:49.144Z,20.60
2018-10-01T04:48:49.153Z,20.54
2018-10-01T04:49:49.147Z,20.53
2018-10-01T04:50:49.127Z,20.63
2018-10-01T04:51:49.109Z,20.51
2018-10-01T04:52:49.124Z,20.63
2018-10-01T04:53:49.094Z,20.61
2018-10-01T04:54:49.188Z,20.51
2018-10-01T04:55:49.079Z,20.53
2018-10-01T04:56:49.083Z,20.50
2018-10-01T04:57:49.114Z,20.50
2018-10-01T04:58:49.054Z,20.51
2018-10-01T04:59:49.054Z,20.46
2018-10-01T05:00:49.056Z,20.54
2018-10-01T05:01:49.036Z,20.53
2018-10-01T05:02:49.042Z,20.51
2018-10-01T05:03:49.015Z,20.50
2018-10-01T05:04:49.023Z,20.51
2018-10-01T05:05:49.121Z,20.51
2018-10-01T05:06:48.987Z,20.51
2018-10-01T05:07:48.980Z,20.56
2018-10-01T05:08:48.986Z,20.60
2018-10-01T05:09:48.962Z,20.51
2018-10-01T05:10:48.985Z,20.60
2018-10-01T05:11:49.056Z,20.54
2018-10-01T05:12:48.934Z,20.56
2018-10-01T05:13:48.936Z,20.56
2018-10-01T05:14:48.977Z,20.50
2018-10-01T05:15:48.963Z,20.54
2018-10-01T05:16:48.917Z,20.50
2018-10-01T05:17:48.883Z,20.42
2018-10-01T05:18:48.893Z,20.56
2018-10-01T05:19:48.936Z,20.46
2018-10-01T05:20:48.873Z,20.48
2018-10-01T05:21:48.979Z,20.46
2018-10-01T05:22:48.895Z,20.40
2018-10-01T05:23:48.853Z,20.51
2018-10-01T05:24:48.851Z,20.42
2018-10-01T05:25:48.850Z,20.48
2018-10-01T05:26:49.135Z,20.51
2018-10-01T05:27:48.824Z,20.46
2018-10-01T05:28:48.855Z,20.50
2018-10-01T05:29:48.863Z,20.50
2018-10-01T05:30:48.841Z,20.46
2018-10-01T05:31:48.787Z,20.35
2018-10-01T05:32:48.782Z,20.37
2018-10-01T05:33:48.793Z,20.46
2018-10-01T05:34:48.775Z,20.50
2018-10-01T05:35:48.744Z,20.56
2018-10-01T05:36:48.754Z,20.50
2018-10-01T05:37:48.793Z,20.48
2018-10-01T05:38:48.745Z,20.56
2018-10-01T05:39:48.719Z,20.56
2018-10-01T05:40:48.777Z,20.54
2018-10-01T05:41:48.694Z,20.51
2018-10-01T05:42:48.849Z,20.53
2018-10-01T05:43:48.700Z,20.46
2018-10-01T05:44:48.685Z,20.53
2018-10-01T05:45:48.697Z,20.48
2018-10-01T05:46:48.684Z,20.37
2018-10-01T05:47:48.710Z,20.30
2018-10-01T05:48:48.674Z,20.35
2018-10-01T05:49:48.694Z,20.31
2018-10-01T05:50:48.648Z,20.33
2018-10-01T05:51:48.617Z,20.33
2018-10-01T05:52:48.611Z,20.33
2018-10-01T05:53:48.634Z,20.30
2018-10-01T05:54:48.611Z,20.35
2018-10-01T05:55:48.626Z,20.31
2018-10-01T05:56:48.578Z,20.30
2018-10-01T05:57:48.618Z,20.34
2018-10-01T05:58:48.577Z,20.31
2018-10-01T05:59:48.579Z,20.30
2018-10-01T06:00:48.543Z,20.31
2018-10-01T06:01:48.546Z,20.34
2018-10-01T06:02:48.564Z,20.35
2018-10-01T06:03:48.572Z,20.38
2018-10-01T06:04:48.595Z,20.30
2018-10-01T06:05:48.520Z,20.31
2018-10-01T06:06:48.510Z,20.40
2018-10-01T06:07:48.565Z,20.38
2018-10-01T06:08:48.490Z,20.33
2018-10-01T06:09:48.487Z,20.35
2018-10-01T06:10:48.494Z,20.34
2018-10-01T06:11:48.497Z,20.38
2018-10-01T06:12:48.502Z,20.35
2018-10-01T06:13:48.449Z,20.33
2018-10-01T06:14:48.438Z,20.33
2018-10-01T06:15:48.440Z,20.33
2018-10-01T06:16:48.423Z,20.35
2018-10-01T06:17:48.421Z,20.35
2018-10-01T06:18:48.395Z,20.44
2018-10-01T06:19:48.705Z,20.37
2018-10-01T06:20:48.408Z,20.38
2018-10-01T06:21:48.392Z,20.38
2018-10-01T06:22:48.423Z,20.40
2018-10-01T06:23:48.354Z,20.41
2018-10-01T06:24:48.354Z,20.37
2018-10-01T06:25:48.354Z,20.35
2018-10-01T06:26:48.382Z,20.42
2018-10-01T06:27:48.376Z,20.46
2018-10-01T06:28:48.336Z,20.37
2018-10-01T06:29:48.296Z,20.46
2018-10-01T06:30:48.608Z,20.38
2018-10-01T06:31:48.283Z,20.35
2018-10-01T06:32:48.304Z,20.35
2018-10-01T06:33:48.281Z,20.38
2018-10-01T06:34:48.279Z,20.44
2018-10-01T06:35:48.286Z,20.44
2018-10-01T06:36:48.251Z,20.42
2018-10-01T06:37:48.242Z,20.50
2018-10-01T06:38:48.238Z,20.53
2018-10-01T06:39:48.226Z,20.44
2018-10-01T06:40:48.205Z,20.42
2018-10-01T06:41:48.326Z,20.48
2018-10-01T06:42:48.202Z,20.44
2018-10-01T06:43:48.196Z,20.46
2018-10-01T06:44:48.193Z,20.54
2018-10-01T06:45:48.218Z,20.50
2018-10-01T06:46:48.171Z,20.46
2018-10-01T06:47:48.148Z,20.42
2018-10-01T06:48:48.184Z,20.42
2018-10-01T06:49:48.152Z,20.56
2018-10-01T06:50:48.166Z,20.46
2018-10-01T06:51:48.136Z,20.46
2018-10-01T06:52:48.124Z,20.50
2018-10-01T06:53:48.139Z,20.46
2018-10-01T06:54:48.116Z,20.48
2018-10-01T06:55:48.114Z,20.53
2018-10-01T06:56:48.374Z,20.51
2018-10-01T06:57:48.091Z,20.48
2018-10-01T06:58:48.091Z,20.50
2018-10-01T06:59:48.063Z,20.53
2018-10-01T07:00:48.076Z,20.44
2018-10-01T07:01:48.091Z,20.50
2018-10-01T07:02:48.051Z,20.50
2018-10-01T07:03:48.054Z,20.48
2018-10-01T07:04:48.010Z,20.58
2018-10-01T07:05:48.130Z,20.46
2018-10-01T07:06:47.994Z,20.53
2018-10-01T07:07:47.997Z,20.46
2018-10-01T07:08:48.007Z,20.54
2018-10-01T07:09:47.994Z,20.50
2018-10-01T07:10:47.978Z,20.51
2018-10-01T07:11:47.980Z,20.44
2018-10-01T07:12:47.976Z,20.50
2018-10-01T07:13:47.958Z,20.56
2018-10-01T07:14:47.933Z,20.56
2018-10-01T07:15:47.938Z,20.53
2018-10-01T07:16:47.978Z,20.46
2018-10-01T07:17:47.931Z,20.46
2018-10-01T07:18:47.903Z,20.54
2018-10-01T07:19:47.898Z,20.51
2018-10-01T07:20:47.933Z,20.56
2018-10-01T07:21:47.890Z,20.48
2018-10-01T07:22:47.939Z,20.42
2018-10-01T07:23:47.877Z,20.50
2018-10-01T07:24:47.878Z,20.53
2018-10-01T07:25:47.865Z,20.58
2018-10-01T07:26:47.885Z,20.44
2018-10-01T07:27:47.851Z,20.51
2018-10-01T07:28:47.841Z,20.57
2018-10-01T07:29:47.862Z,20.54
2018-10-01T07:30:47.806Z,20.57
2018-10-01T07:31:47.801Z,20.53
2018-10-01T07:32:48.064Z,20.50
2018-10-01T07:33:47.825Z,20.54
2018-10-01T07:34:47.787Z,20.50
2018-10-01T07:35:47.784Z,20.51
2018-10-01T07:36:47.777Z,20.48
2018-10-01T07:37:47.889Z,20.53
2018-10-01T07:38:47.756Z,20.46
2018-10-01T07:39:47.736Z,20.54
2018-10-01T07:40:47.737Z,20.50
2018-10-01T07:41:47.723Z,20.53
2018-10-01T07:42:47.702Z,20.56
2018-10-01T07:43:47.709Z,20.48
2018-10-01T07:44:47.728Z,20.48
2018-10-01T07:45:47.680Z,20.50
2018-10-01T07:46:47.677Z,20.53
2018-10-01T07:47:47.683Z,20.50
2018-10-01T07:48:47.649Z,20.40
2018-10-01T07:49:47.672Z,20.50
2018-10-01T07:50:47.788Z,20.44
2018-10-01T07:51:47.642Z,20.48
2018-10-01T07:52:47.633Z,20.50
2018-10-01T07:53:47.651Z,20.51
2018-10-01T07:54:47.619Z,20.48
2018-10-01T07:55:47.659Z,20.40
2018-10-01T07:56:47.605Z,20.44
2018-10-01T07:57:47.611Z,20.57
2018-10-01T07:58:48.027Z,20.51
2018-10-01T07:59:47.625Z,20.53
2018-10-01T08:00:47.582Z,20.51
2018-10-01T08:01:47.604Z,20.57
2018-10-01T08:02:47.575Z,20.51
2018-10-01T08:03:47.548Z,20.50
2018-10-01T08:04:47.652Z,20.54
2018-10-01T08:05:47.572Z,20.50
2018-10-01T08:06:47.537Z,20.50
2018-10-01T08:07:47.508Z,20.56
2018-10-01T08:08:47.522Z,20.46
2018-10-01T08:09:47.494Z,20.58
2018-10-01T08:10:47.484Z,20.48
2018-10-01T08:11:47.487Z,20.54
2018-10-01T08:12:47.477Z,20.54
2018-10-01T08:13:47.472Z,20.56
2018-10-01T08:14:47.448Z,20.51
2018-10-01T08:15:47.575Z,20.53
2018-10-01T08:16:47.438Z,20.57
2018-10-01T08:17:47.430Z,20.53
2018-10-01T08:18:47.479Z,20.54
2018-10-01T08:19:47.414Z,20.54
2018-10-01T08:20:47.693Z,20.50
2018-10-01T08:21:47.402Z,20.50
2018-10-01T08:22:47.386Z,20.42
2018-10-01T08:23:47.385Z,20.56
2018-10-01T08:24:47.367Z,20.48
2018-10-01T08:25:47.385Z,20.40
2018-10-01T08:26:47.504Z,20.48
2018-10-01T08:27:47.336Z,20.42
2018-10-01T08:28:47.343Z,20.37
2018-10-01T08:29:47.468Z,20.35
2018-10-01T08:30:47.323Z,20.34
2018-10-01T08:31:47.574Z,20.34
2018-10-01T08:32:47.281Z,20.42
2018-10-01T08:33:47.341Z,20.42
2018-10-01T08:34:47.303Z,20.41
2018-10-01T08:35:47.279Z,20.40
2018-10-01T08:36:47.260Z,20.34
2018-10-01T08:37:47.274Z,20.37
2018-10-01T08:38:47.413Z,20.44
2018-10-01T08:39:47.272Z,20.42
2018-10-01T08:40:47.254Z,20.50
2018-10-01T08:41:47.226Z,20.41
2018-10-01T08:42:47.274Z,20.53
2018-10-01T08:43:47.213Z,20.50
2018-10-01T08:44:47.210Z,20.53
2018-10-01T08:45:47.199Z,20.50
2018-10-01T08:46:47.203Z,20.44
2018-10-01T08:47:47.202Z,20.54
2018-10-01T08:48:47.224Z,20.61
2018-10-01T08:49:47.160Z,20.56
2018-10-01T08:50:47.166Z,20.61
2018-10-01T08:51:47.156Z,20.54
2018-10-01T08:52:47.135Z,20.54
2018-10-01T08:53:47.117Z,20.57
2018-10-01T08:54:47.144Z,20.57
2018-10-01T08:55:47.122Z,20.60
2018-10-01T08:56:47.115Z,20.51
2018-10-01T08:57:47.124Z,20.64
2018-10-01T08:58:47.112Z,20.56
2018-10-01T08:59:47.098Z,20.60
2018-10-01T09:00:47.093Z,20.51
2018-10-01T09:01:47.072Z,20.66
2018-10-01T09:02:47.067Z,20.56
2018-10-01T09:03:47.066Z,20.63
2018-10-01T09:04:47.046Z,20.71
2018-10-01T09:05:47.027Z,20.57
2018-10-01T09:06:47.074Z,20.51
2018-10-01T09:07:47.038Z,20.56
2018-10-01T09:08:47.026Z,20.57
2018-10-01T09:09:47.002Z,20.66
2018-10-01T09:10:47.010Z,20.64
2018-10-01T09:11:46.985Z,20.60
2018-10-01T09:12:47.095Z,20.66
2018-10-01T09:13:46.971Z,20.64
2018-10-01T09:14:47.024Z,20.66
2018-10-01T09:15:46.988Z,20.63
2018-10-01T09:16:46.989Z,20.54
2018-10-01T09:17:46.964Z,20.56
2018-10-01T09:18:46.953Z,20.63
2018-10-01T09:19:46.945Z,20.48
2018-10-01T09:20:46.913Z,20.60
2018-10-01T09:21:46.903Z,20.53
2018-10-01T09:22:46.997Z,20.51
2018-10-01T09:23:46.888Z,20.57
2018-10-01T09:24:46.881Z,20.48
2018-10-01T09:25:46.863Z,20.50
2018-10-01T09:26:46.862Z,20.48
2018-10-01T09:27:46.849Z,20.51
2018-10-01T09:28:46.840Z,20.42
2018-10-01T09:29:46.862Z,20.50
2018-10-01T09:30:46.866Z,20.54
2018-10-01T09:31:46.844Z,20.50
2018-10-01T09:32:46.814Z,20.51
2018-10-01T09:33:46.814Z,20.57
2018-10-01T09:34:46.812Z,20.61
2018-10-01T09:35:46.784Z,20.57
2018-10-01T09:36:46.784Z,20.57
2018-10-01T09:37:46.787Z,20.54
2018-10-01T09:38:46.889Z,20.61
2018-10-01T09:39:46.767Z,20.66
2018-10-01T09:40:46.754Z,20.64
2018-10-01T09:41:46.762Z,20.71
2018-10-01T09:42:46.740Z,20.75
2018-10-01T09:43:46.726Z,20.73
2018-10-01T09:44:46.698Z,20.72
2018-10-01T09:45:46.735Z,20.82
2018-10-01T09:46:46.702Z,20.83
2018-10-01T09:47:46.713Z,20.82
2018-10-01T09:48:46.697Z,20.91
2018-10-01T09:49:46.697Z,20.91
2018-10-01T09:50:46.658Z,20.88
2018-10-01T09:51:46.685Z,20.93
2018-10-01T09:52:46.666Z,20.94
2018-10-01T09:53:46.701Z,20.91
2018-10-01T09:54:46.681Z,20.96
2018-10-01T09:55:46.660Z,20.93
2018-10-01T09:56:46.621Z,20.94
2018-10-01T09:57:46.632Z,20.96
2018-10-01T09:58:46.611Z,21.03
2018-10-01T09:59:46.607Z,20.97
2018-10-01T10:00:46.651Z,21.06
2018-10-01T10:01:46.596Z,21.08
2018-10-01T10:02:46.570Z,21.08
2018-10-01T10:03:46.594Z,21.03
2018-10-01T10:04:46.625Z,21.12
2018-10-01T10:05:46.560Z,21.11
2018-10-01T10:06:46.568Z,21.08
2018-10-01T10:07:46.583Z,21.15
2018-10-01T10:08:46.521Z,21.15
2018-10-01T10:09:46.514Z,21.19
2018-10-01T10:10:46.504Z,21.27
2018-10-01T10:11:46.523Z,21.30
2018-10-01T10:12:46.497Z,21.31
2018-10-01T10:13:46.507Z,21.26
2018-10-01T10:14:46.487Z,21.33
2018-10-01T10:15:46.475Z,21.33
2018-10-01T10:16:46.566Z,21.30
2018-10-01T10:17:46.578Z,21.33
2018-10-01T10:18:46.464Z,21.31
2018-10-01T10:19:46.442Z,21.26
2018-10-01T10:20:46.494Z,21.28
2018-10-01T10:21:46.435Z,21.33
2018-10-01T10:22:46.433Z,21.28
2018-10-01T10:23:46.463Z,21.34
2018-10-01T10:24:46.406Z,21.30
2018-10-01T10:25:46.392Z,21.34
2018-10-01T10:26:46.403Z,21.27
2018-10-01T10:27:46.374Z,21.27
2018-10-01T10:28:46.389Z,21.31
2018-10-01T10:29:46.355Z,21.33
2018-10-01T10:30:46.370Z,21.27
2018-10-01T10:31:46.366Z,21.34
2018-10-01T10:32:46.375Z,21.27
2018-10-01T10:33:46.344Z,21.30
2018-10-01T10:34:46.350Z,21.21
2018-10-01T10:35:46.316Z,21.22
2018-10-01T10:36:46.316Z,21.16
2018-10-01T10:37:46.296Z,21.18
2018-10-01T10:38:46.301Z,21.09
2018-10-01T10:39:46.279Z,21.08
2018-10-01T10:40:46.289Z,21.05
2018-10-01T10:41:46.275Z,21.11
2018-10-01T10:42:46.283Z,21.11
2018-10-01T10:43:46.283Z,21.03
2018-10-01T10:44:46.263Z,20.98
2018-10-01T10:45:46.235Z,20.97
2018-10-01T10:46:46.247Z,20.93
2018-10-01T10:47:46.242Z,20.94
2018-10-01T10:48:46.319Z,20.83
2018-10-01T10:49:46.225Z,20.91
2018-10-01T10:50:46.243Z,20.94
2018-10-01T10:51:46.195Z,20.85
2018-10-01T10:52:46.203Z,20.94
2018-10-01T10:53:46.440Z,20.87
2018-10-01T10:54:46.195Z,20.91
2018-10-01T10:55:46.186Z,20.87
2018-10-01T10:56:46.208Z,20.90
2018-10-01T10:57:46.149Z,20.94
2018-10-01T10:58:46.163Z,20.96
2018-10-01T10:59:46.149Z,20.91
2018-10-01T11:00:46.123Z,20.96
2018-10-01T11:01:46.125Z,20.96
2018-10-01T11:02:46.116Z,21.03
2018-10-01T11:03:46.205Z,21.05
2018-10-01T11:04:46.100Z,20.97
2018-10-01T11:05:46.079Z,21.03
2018-10-01T11:06:46.088Z,20.96
2018-10-01T11:07:46.055Z,20.94
2018-10-01T11:08:46.075Z,21.00
2018-10-01T11:09:46.086Z,20.91
2018-10-01T11:10:46.043Z,20.91
2018-10-01T11:11:46.024Z,20.88
2018-10-01T11:12:46.065Z,20.96
2018-10-01T11:13:46.046Z,20.93
2018-10-01T11:14:46.212Z,20.94
2018-10-01T11:15:46.013Z,20.91
2018-10-01T11:16:46.011Z,20.98
2018-10-01T11:17:46.062Z,20.93
2018-10-01T11:18:46.138Z,20.96
2018-10-01T11:19:46.091Z,20.93
2018-10-01T11:20:45.990Z,21.00
2018-10-01T11:21:46.036Z,21.00
2018-10-01T11:22:45.954Z,21.08
2018-10-01T11:23:45.959Z,20.94
2018-10-01T11:24:45.946Z,20.94
2018-10-01T11:25:46.256Z,20.97
2018-10-01T11:26:45.988Z,21.05
2018-10-01T11:27:45.990Z,20.97
2018-10-01T11:28:45.959Z,21.11
2018-10-01T11:29:45.896Z,21.01
2018-10-01T11:30:45.878Z,21.11
2018-10-01T11:31:45.967Z,21.06
2018-10-01T11:32:45.903Z,21.00
2018-10-01T11:33:45.948Z,21.11
2018-10-01T11:34:45.880Z,21.15
2018-10-01T11:35:45.820Z,21.12
2018-10-01T11:36:45.834Z,21.08
2018-10-01T11:37:45.879Z,21.06
2018-10-01T11:38:45.841Z,21.15
2018-10-01T11:39:45.858Z,21.22
2018-10-01T11:40:45.817Z,21.22
2018-10-01T11:41:45.784Z,21.16
2018-10-01T11:42:45.809Z,21.30
2018-10-01T11:43:45.791Z,21.27
2018-10-01T11:44:45.782Z,21.36
2018-10-01T11:45:45.889Z,21.33
2018-10-01T11:46:45.753Z,21.38
2018-10-01T11:47:45.778Z,21.38
2018-10-01T11:48:45.740Z,21.40
2018-10-01T11:49:45.801Z,21.43
2018-10-01T11:50:45.764Z,21.45
2018-10-01T11:51:45.870Z,21.49
2018-10-01T11:52:45.722Z,21.52
2018-10-01T11:53:45.692Z,21.56
2018-10-01T11:54:45.708Z,21.66
2018-10-01T11:55:45.682Z,21.67
2018-10-01T11:56:45.692Z,21.71
2018-10-01T11:57:45.731Z,21.67
2018-10-01T11:58:45.682Z,21.74
2018-10-01T11:59:45.661Z,21.79
2018-10-01T12:00:45.667Z,21.75
2018-10-01T12:01:45.698Z,21.83
2018-10-01T12:02:49.099Z,21.75
2018-10-01T12:03:45.735Z,21.91
2018-10-01T12:04:45.637Z,21.89
2018-10-01T12:05:45.609Z,22.05
2018-10-01T12:06:45.612Z,22.06
2018-10-01T12:07:45.586Z,22.05
2018-10-01T12:08:45.600Z,22.09
2018-10-01T12:09:45.686Z,22.14
2018-10-01T12:10:45.574Z,22.08
2018-10-01T12:11:45.556Z,21.96
2018-10-01T12:12:45.578Z,22.09
2018-10-01T12:13:45.539Z,22.02
2018-10-01T12:14:45.581Z,22.06
2018-10-01T12:15:45.596Z,22.12
2018-10-01T12:16:45.523Z,22.20
2018-10-01T12:17:45.531Z,22.09
2018-10-01T12:18:45.637Z,22.19
2018-10-01T12:19:45.533Z,22.11
2018-10-01T12:20:45.500Z,22.17
2018-10-01T12:21:45.637Z,22.14
2018-10-01T12:22:45.484Z,22.30
2018-10-01T12:23:45.495Z,22.38
2018-10-01T12:24:45.485Z,22.31
2018-10-01T12:25:45.448Z,22.35
2018-10-01T12:26:45.464Z,22.44
2018-10-01T12:27:45.534Z,22.56
2018-10-01T12:28:45.448Z,22.59
2018-10-01T12:29:45.459Z,22.69
2018-10-01T12:30:45.427Z,22.82
2018-10-01T12:31:45.425Z,22.84
2018-10-01T12:32:45.446Z,22.85
2018-10-01T12:33:45.414Z,22.78
2018-10-01T12:34:45.389Z,22.69
2018-10-01T12:35:45.412Z,22.86
2018-10-01T12:36:45.415Z,22.85
2018-10-01T12:37:45.430Z,22.96
2018-10-01T12:38:45.393Z,23.04
2018-10-01T12:39:45.448Z,23.07
2018-10-01T12:40:45.371Z,23.09
2018-10-01T12:41:45.353Z,23.16
2018-10-01T12:42:45.479Z,23.04
2018-10-01T12:43:45.351Z,23.12
2018-10-01T12:44:45.437Z,23.07
2018-10-01T12:45:45.408Z,23.04
2018-10-01T12:46:45.338Z,23.11
2018-10-01T12:47:45.314Z,23.12
2018-10-01T12:48:45.320Z,22.97
2018-10-01T12:49:45.319Z,22.94
2018-10-01T12:50:45.322Z,22.99
2018-10-01T12:51:45.374Z,22.82
2018-10-01T12:52:47.308Z,22.82